createdAt,value
2022-08-05T00:02:51.050Z,64.09
2022-08-05T00:06:06.681Z,64.35
2022-08-05T00:09:19.496Z,64.45
2022-08-05T00:12:22.759Z,64.49
2022-08-05T00:15:55.551Z,64.56
2022-08-05T00:18:50.047Z,65.00
2022-08-05T00:21:53.999Z,65.08
2022-08-05T00:24:57.063Z,65.22
2022-08-05T00:27:59.966Z,65.52
2022-08-05T00:31:04.801Z,65.66
2022-08-05T00:34:56.489Z,65.93
2022-08-05T00:37:50.670Z,66.30
2022-08-05T00:40:58.311Z,66.45
2022-08-05T00:44:03.190Z,66.68
2022-08-05T00:47:05.984Z,67.01
2022-08-05T00:50:10.126Z,67.10
2022-08-05T00:54:00.643Z,67.01
2022-08-05T00:56:40.769Z,67.30
2022-08-05T00:59:54.514Z,67.72
2022-08-05T01:02:59.672Z,67.45
2022-08-05T01:06:05.361Z,67.30
2022-08-05T01:09:08.528Z,67.35
2022-08-05T01:12:18.685Z,67.58
2022-08-05T01:15:36.449Z,67.29
2022-08-05T01:18:48.122Z,67.37
2022-08-05T01:22:38.412Z,67.60
2022-08-05T01:26:03.001Z,67.73
2022-08-05T01:29:13.685Z,67.65
2022-08-05T01:32:21.008Z,67.63
2022-08-05T01:35:52.039Z,67.36
2022-08-05T01:38:53.296Z,67.49
2022-08-05T01:41:58.552Z,67.53
2022-08-05T01:45:03.321Z,67.83
2022-08-05T01:48:10.441Z,67.86
2022-08-05T01:51:16.133Z,67.83
2022-08-05T01:54:25.486Z,67.02
2022-08-05T01:58:09.881Z,66.83
2022-08-05T02:00:58.749Z,65.77
2022-08-05T02:04:03.751Z,64.46
2022-08-05T02:07:06.661Z,63.26
2022-08-05T02:10:11.448Z,63.24
2022-08-05T02:13:36.547Z,63.43
2022-08-05T02:17:04.061Z,63.31
2022-08-05T02:20:11.582Z,62.66
2022-08-05T02:23:24.358Z,62.44
2022-08-05T02:26:38.178Z,62.75
2022-08-05T02:29:59.703Z,62.73
2022-08-05T02:33:06.692Z,62.61
2022-08-05T02:36:13.570Z,62.99
2022-08-05T02:39:21.492Z,62.82
2022-08-05T02:42:27.604Z,62.95
2022-08-05T02:45:52.006Z,63.42
2022-08-05T02:48:57.875Z,64.04
2022-08-05T02:52:03.471Z,64.38
2022-08-05T02:55:10.881Z,64.73
2022-08-05T02:58:16.680Z,64.86
2022-08-05T03:01:25.459Z,65.20
2022-08-05T03:04:30.262Z,65.37
2022-08-05T03:08:00.486Z,65.96
2022-08-05T03:11:53.758Z,66.57
2022-08-05T03:14:21.932Z,67.35
2022-08-05T03:17:25.360Z,67.67
2022-08-05T03:20:30.168Z,67.81
2022-08-05T03:23:34.727Z,68.01
2022-08-05T03:26:38.319Z,68.28
2022-08-05T03:29:44.600Z,68.27
2022-08-05T03:32:49.270Z,68.50
2022-08-05T03:35:52.615Z,68.58
2022-08-05T03:38:55.526Z,68.41
2022-08-05T03:41:58.315Z,68.32
2022-08-05T03:45:21.970Z,68.00
2022-08-05T03:48:24.740Z,68.02
2022-08-05T03:52:37.710Z,68.02
2022-08-05T03:56:06.098Z,68.05
2022-08-05T03:58:30.645Z,68.24
2022-08-05T04:01:37.951Z,68.37
2022-08-05T04:04:42.225Z,68.43
2022-08-05T04:07:58.129Z,68.51
2022-08-05T04:11:02.899Z,68.53
2022-08-05T04:14:07.145Z,68.67
2022-08-05T04:17:12.099Z,68.77
2022-08-05T04:20:23.370Z,69.02
2022-08-05T04:24:05.496Z,69.21
2022-08-05T04:26:51.030Z,68.94
2022-08-05T04:29:54.045Z,68.85
2022-08-05T04:32:56.674Z,68.93
2022-08-05T04:36:10.689Z,68.80
2022-08-05T04:39:22.291Z,68.44
2022-08-05T04:42:25.812Z,68.20
2022-08-05T04:45:47.708Z,66.64
2022-08-05T04:48:51.634Z,63.50
2022-08-05T04:52:00.147Z,58.56
2022-08-05T04:55:13.959Z,54.90
2022-08-05T04:58:21.609Z,52.03
2022-08-05T05:02:06.020Z,49.87
2022-08-05T05:04:49.744Z,48.01
2022-08-05T05:07:56.627Z,46.54
2022-08-05T05:11:03.849Z,45.06
2022-08-05T05:14:08.565Z,45.08
2022-08-05T05:17:11.345Z,44.23
2022-08-05T05:20:14.609Z,43.11
2022-08-05T05:23:19.620Z,42.19
2022-08-05T05:26:28.146Z,41.61
2022-08-05T05:30:03.460Z,41.07
2022-08-05T05:33:01.014Z,40.01
2022-08-05T05:36:06.262Z,38.41
2022-08-05T05:39:10.871Z,37.22
2022-08-05T05:42:14.234Z,36.53
2022-08-05T05:45:18.077Z,32.81
2022-08-05T05:48:27.270Z,32.33
2022-08-05T05:51:30.779Z,30.52
2022-08-05T05:54:52.483Z,30.47
2022-08-05T05:57:55.635Z,29.91
2022-08-05T06:01:12.689Z,30.30
2022-08-05T06:04:18.436Z,30.19
2022-08-05T06:07:41.716Z,30.38
2022-08-05T06:10:52.683Z,31.92
2022-08-05T06:13:56.139Z,31.55
2022-08-05T06:17:02.032Z,31.65
2022-08-05T06:20:23.197Z,32.21
2022-08-05T06:23:26.204Z,31.75
2022-08-05T06:26:35.983Z,31.12
2022-08-05T06:29:49.472Z,30.32
2022-08-05T06:32:57.323Z,29.32
2022-08-05T06:36:07.665Z,30.99
2022-08-05T06:39:12.942Z,30.04
2022-08-05T06:42:16.997Z,29.66
2022-08-05T06:45:44.874Z,30.36
2022-08-05T06:48:55.779Z,30.66
2022-08-05T06:52:01.760Z,30.90
2022-08-05T06:55:05.589Z,30.69
2022-08-05T06:58:20.260Z,30.76
2022-08-05T07:01:32.384Z,30.60
2022-08-05T07:04:35.443Z,29.73
2022-08-05T07:07:43.722Z,30.57
2022-08-05T07:10:52.304Z,30.14
2022-08-05T07:14:20.511Z,31.13
2022-08-05T07:18:00.458Z,30.23
2022-08-05T07:20:56.090Z,30.24
2022-08-05T07:23:58.729Z,29.35
2022-08-05T07:27:04.799Z,30.30
2022-08-05T07:30:25.347Z,30.65
2022-08-05T07:33:37.233Z,30.24
2022-08-05T07:36:40.319Z,31.58
2022-08-05T07:40:26.271Z,30.49
2022-08-05T07:43:14.760Z,32.26
2022-08-05T07:46:26.618Z,29.99
2022-08-05T07:49:29.526Z,30.21
2022-08-05T07:52:32.566Z,30.76
2022-08-05T07:55:44.282Z,30.91
2022-08-05T07:58:59.201Z,31.29
2022-08-05T08:02:03.234Z,29.47
2022-08-05T08:05:07.314Z,29.11
2022-08-05T08:08:14.078Z,28.58
2022-08-05T08:11:18.404Z,27.75
2022-08-05T08:14:30.417Z,27.90
2022-08-05T08:17:35.329Z,28.09
2022-08-05T08:21:00.085Z,28.79
2022-08-05T08:24:05.162Z,28.02
2022-08-05T08:27:08.934Z,27.67
2022-08-05T08:30:27.696Z,28.31
2022-08-05T08:33:38.040Z,27.22
2022-08-05T08:36:49.113Z,27.90
2022-08-05T08:39:55.420Z,27.52
2022-08-05T08:44:57.884Z,27.86
2022-08-05T08:46:24.499Z,27.41
2022-08-05T08:50:14.124Z,26.96
2022-08-05T08:53:07.985Z,26.63
2022-08-05T08:56:11.326Z,26.72
2022-08-05T08:59:19.374Z,25.87
2022-08-05T09:02:26.789Z,26.20
2022-08-05T09:05:38.419Z,25.09
2022-08-05T09:08:52.591Z,25.64
2022-08-05T09:12:02.245Z,24.66
2022-08-05T09:15:15.598Z,25.77
2022-08-05T09:18:18.595Z,25.41
2022-08-05T09:22:22.172Z,26.85
2022-08-05T09:25:01.111Z,26.87
2022-08-05T09:28:21.148Z,25.96
2022-08-05T09:32:40.407Z,25.28
2022-08-05T09:34:55.828Z,25.62
2022-08-05T09:38:17.389Z,27.22
2022-08-05T09:41:21.636Z,26.78
2022-08-05T09:44:39.957Z,25.71
2022-08-05T09:47:55.372Z,25.10
2022-08-05T09:51:15.286Z,23.45
2022-08-05T09:54:31.421Z,22.98
2022-08-05T09:57:43.124Z,22.11
2022-08-05T10:01:15.267Z,23.61
2022-08-05T10:04:38.446Z,23.66
2022-08-05T10:08:10.767Z,21.73
2022-08-05T10:11:17.623Z,21.58
2022-08-05T10:14:24.394Z,20.67
2022-08-05T10:17:37.949Z,22.51
2022-08-05T10:20:53.917Z,22.82
2022-08-05T10:24:00.411Z,20.98
2022-08-05T10:27:03.865Z,21.82
2022-08-05T10:32:47.907Z,22.18
2022-08-05T10:33:34.934Z,22.68
2022-08-05T10:36:41.254Z,23.09
2022-08-05T10:39:59.069Z,22.88
2022-08-05T10:43:44.893Z,23.51
2022-08-05T10:46:54.291Z,23.38
2022-08-05T10:50:33.238Z,22.41
2022-08-05T10:53:38.171Z,21.52
2022-08-05T10:56:55.893Z,21.48
2022-08-05T11:00:17.940Z,22.33
2022-08-05T11:03:24.257Z,22.25
2022-08-05T11:06:30.726Z,21.23
2022-08-05T11:09:46.498Z,21.71
2022-08-05T11:12:54.411Z,21.58
2022-08-05T11:16:22.198Z,21.05
2022-08-05T11:20:10.081Z,21.78
2022-08-05T11:24:02.238Z,22.42
2022-08-05T11:27:45.775Z,22.02
2022-08-05T11:31:05.918Z,22.15
2022-08-05T11:34:09.516Z,22.58
2022-08-05T11:38:37.003Z,22.42
2022-08-05T11:41:36.799Z,23.05
2022-08-05T11:44:53.148Z,22.77
2022-08-05T11:47:58.663Z,22.87
2022-08-05T11:51:02.292Z,22.22
2022-08-05T11:54:05.401Z,22.08
2022-08-05T11:57:25.275Z,22.23
2022-08-05T12:00:31.356Z,21.79
2022-08-05T12:03:55.831Z,21.47
2022-08-05T12:07:02.132Z,21.51
2022-08-05T12:10:09.017Z,21.49
2022-08-05T12:13:47.259Z,21.79
2022-08-05T12:16:45.558Z,22.11
2022-08-05T12:20:16.878Z,22.28
2022-08-05T12:23:18.354Z,21.83
2022-08-05T12:26:21.412Z,22.50
2022-08-05T12:29:29.177Z,21.88
2022-08-05T12:32:50.464Z,21.81
2022-08-05T12:35:55.077Z,22.53
2022-08-05T12:38:58.968Z,21.90
2022-08-05T12:42:03.016Z,22.05
2022-08-05T12:45:08.775Z,22.41
2022-08-05T12:48:27.758Z,22.51
2022-08-05T12:52:13.551Z,21.98
2022-08-05T12:55:25.477Z,22.08
2022-08-05T12:58:50.216Z,21.88
2022-08-05T13:02:07.647Z,22.09
2022-08-05T13:05:14.484Z,21.60
2022-08-05T13:08:19.475Z,22.08
2022-08-05T13:12:02.862Z,21.74
2022-08-05T13:15:05.744Z,21.90
2022-08-05T13:18:10.579Z,22.43
2022-08-05T13:21:13.722Z,22.13
2022-08-05T13:24:27.699Z,22.00
2022-08-05T13:27:50.432Z,21.89
2022-08-05T13:30:53.696Z,21.94
2022-08-05T13:34:24.695Z,21.70
2022-08-05T13:37:34.407Z,21.21
2022-08-05T13:40:51.292Z,21.94
2022-08-05T13:43:55.456Z,22.03
2022-08-05T13:47:02.550Z,22.30
2022-08-05T13:50:16.530Z,22.20
2022-08-05T13:53:19.915Z,22.31
2022-08-05T13:56:23.165Z,21.28
2022-08-05T13:59:27.117Z,21.29
2022-08-05T14:02:31.393Z,21.67
2022-08-05T14:06:24.444Z,21.79
2022-08-05T14:08:59.386Z,21.82
2022-08-05T14:12:17.299Z,21.80
2022-08-05T14:16:09.087Z,21.82
2022-08-05T14:18:44.019Z,21.77
2022-08-05T14:22:09.122Z,21.96
2022-08-05T14:25:21.541Z,22.36
2022-08-05T14:28:26.594Z,21.85
2022-08-05T14:32:02.630Z,22.07
2022-08-05T14:34:53.724Z,22.22
2022-08-05T14:37:58.131Z,22.05
2022-08-05T14:41:07.424Z,22.26
2022-08-05T14:44:20.596Z,21.88
2022-08-05T14:48:04.175Z,21.66
2022-08-05T14:50:48.121Z,22.18
2022-08-05T14:54:26.791Z,22.24
2022-08-05T14:57:15.345Z,22.16
2022-08-05T15:00:21.505Z,22.39
2022-08-05T15:03:33.526Z,22.50
2022-08-05T15:06:36.991Z,22.71
2022-08-05T15:09:51.598Z,22.53
2022-08-05T15:13:03.688Z,22.36
2022-08-05T15:16:07.648Z,22.69
2022-08-05T15:19:23.546Z,22.75
2022-08-05T15:22:27.967Z,22.26
2022-08-05T15:25:40.905Z,22.46
2022-08-05T15:28:54.043Z,22.54
2022-08-05T15:31:56.859Z,22.51
2022-08-05T15:34:59.775Z,22.79
2022-08-05T15:38:34.763Z,22.79
2022-08-05T15:41:57.794Z,22.79
2022-08-05T15:44:58.122Z,22.85
2022-08-05T15:48:03.527Z,22.67
2022-08-05T15:51:06.250Z,22.85
2022-08-05T15:54:09.495Z,23.23
2022-08-05T15:57:17.874Z,22.74
2022-08-05T16:00:26.176Z,23.25
2022-08-05T16:03:40.971Z,23.00
2022-08-05T16:06:43.954Z,22.94
2022-08-05T16:09:47.463Z,23.38
2022-08-05T16:12:51.546Z,23.62
2022-08-05T16:15:55.424Z,23.57
2022-08-05T16:18:58.351Z,23.36
2022-08-05T16:22:03.734Z,23.67
2022-08-05T16:25:09.854Z,23.44
2022-08-05T16:28:13.683Z,23.41
2022-08-05T16:31:18.361Z,23.81
2022-08-05T16:34:23.328Z,23.63
2022-08-05T16:38:15.575Z,23.58
2022-08-05T16:40:55.695Z,24.11
2022-08-05T16:44:06.388Z,24.22
2022-08-05T16:47:28.780Z,24.73
2022-08-05T16:50:32.116Z,25.08
2022-08-05T16:54:05.124Z,26.35
2022-08-05T16:57:53.506Z,26.33
2022-08-05T17:00:54.233Z,27.08
2022-08-05T17:03:57.694Z,26.82
2022-08-05T17:07:01.465Z,26.92
2022-08-05T17:10:11.220Z,26.94
2022-08-05T17:13:16.908Z,28.16
2022-08-05T17:16:32.896Z,28.46
2022-08-05T17:19:36.917Z,28.98
2022-08-05T17:22:39.590Z,29.55
2022-08-05T17:25:43.097Z,30.00
2022-08-05T17:28:47.132Z,31.08
2022-08-05T17:31:57.067Z,31.42
2022-08-05T17:35:01.413Z,32.12
2022-08-05T17:38:08.949Z,32.74
2022-08-05T17:42:16.737Z,32.93
2022-08-05T17:44:36.158Z,33.54
2022-08-05T17:47:39.227Z,33.73
2022-08-05T17:50:42.999Z,34.11
2022-08-05T17:53:50.723Z,34.41
2022-08-05T17:56:58.685Z,34.80
2022-08-05T18:00:03.587Z,35.23
2022-08-05T18:03:08.793Z,35.77
2022-08-05T18:06:15.383Z,36.44
2022-08-05T18:09:18.665Z,36.75
2022-08-05T18:12:24.230Z,37.05
2022-08-05T18:15:27.819Z,37.29
2022-08-05T18:18:34.178Z,37.74
2022-08-05T18:22:09.195Z,38.29
2022-08-05T18:25:06.896Z,38.72
2022-08-05T18:28:09.906Z,39.12
2022-08-05T18:31:12.734Z,39.50
2022-08-05T18:34:21.677Z,40.01
2022-08-05T18:37:34.867Z,40.41
2022-08-05T18:41:56.778Z,40.91
2022-08-05T18:44:07.994Z,41.42
2022-08-05T18:47:12.289Z,41.80
2022-08-05T18:50:45.008Z,42.02
2022-08-05T18:53:50.834Z,42.32
2022-08-05T18:56:53.491Z,42.70
2022-08-05T19:00:02.193Z,43.05
2022-08-05T19:03:07.298Z,43.27
2022-08-05T19:06:18.636Z,43.30
2022-08-05T19:09:25.449Z,43.67
2022-08-05T19:12:32.242Z,43.91
2022-08-05T19:15:57.983Z,44.13
2022-08-05T19:18:58.829Z,44.41
2022-08-05T19:22:09.833Z,44.68
2022-08-05T19:25:30.313Z,44.88
2022-08-05T19:28:35.166Z,45.25
2022-08-05T19:31:50.855Z,45.62
2022-08-05T19:34:54.938Z,46.01
2022-08-05T19:38:06.450Z,46.22
2022-08-05T19:41:11.467Z,46.54
2022-08-05T19:44:17.028Z,46.88
2022-08-05T19:47:21.474Z,47.15
2022-08-05T19:50:27.388Z,47.31
2022-08-05T19:54:04.707Z,47.41
2022-08-05T19:56:54.637Z,47.68
2022-08-05T20:00:02.484Z,47.83
2022-08-05T20:03:13.929Z,47.88
2022-08-05T20:06:28.750Z,48.06
2022-08-05T20:09:54.818Z,48.16
2022-08-05T20:12:55.321Z,48.32
2022-08-05T20:15:58.107Z,48.33
2022-08-05T20:19:04.099Z,48.49
2022-08-05T20:22:06.795Z,48.58
2022-08-05T20:25:12.725Z,48.63
2022-08-05T20:28:15.415Z,48.57
2022-08-05T20:31:21.893Z,47.92
2022-08-05T20:34:25.744Z,48.36
2022-08-05T20:38:07.783Z,47.91
2022-08-05T20:40:52.616Z,47.46
2022-08-05T20:44:03.537Z,48.16
2022-08-05T20:47:19.702Z,48.12
2022-08-05T20:50:37.708Z,48.11
2022-08-05T20:53:42.418Z,48.30
2022-08-05T20:56:58.296Z,48.40
2022-08-05T21:00:19.959Z,48.32
2022-08-05T21:03:24.057Z,48.24
2022-08-05T21:06:29.697Z,48.29
2022-08-05T21:09:33.766Z,48.36
2022-08-05T21:12:39.743Z,48.11
2022-08-05T21:16:01.560Z,48.01
2022-08-05T21:19:06.350Z,48.67
2022-08-05T21:22:13.159Z,48.12
2022-08-05T21:25:17.139Z,48.29
2022-08-05T21:28:23.833Z,48.44
2022-08-05T21:31:41.455Z,48.72
2022-08-05T21:34:44.824Z,48.66
2022-08-05T21:38:07.624Z,48.54
2022-08-05T21:41:12.087Z,48.08
2022-08-05T21:44:18.740Z,48.24
2022-08-05T21:47:54.984Z,48.58
2022-08-05T21:50:54.384Z,48.50
2022-08-05T21:53:59.615Z,48.77
2022-08-05T21:57:30.222Z,49.07
2022-08-05T22:00:30.270Z,49.31
2022-08-05T22:03:51.923Z,49.56
2022-08-05T22:06:56.997Z,49.79
2022-08-05T22:10:00.464Z,50.14
2022-08-05T22:13:08.797Z,50.45
2022-08-05T22:16:50.757Z,50.70
2022-08-05T22:20:01.266Z,50.89
2022-08-05T22:24:01.275Z,51.24
2022-08-05T22:27:07.065Z,51.70
2022-08-05T22:30:15.715Z,52.16
2022-08-05T22:33:19.961Z,52.46
2022-08-05T22:36:42.989Z,52.67
2022-08-05T22:39:50.231Z,52.78
2022-08-05T22:42:58.211Z,53.08
2022-08-05T22:46:03.535Z,53.37
2022-08-05T22:50:18.410Z,53.54
2022-08-05T22:52:36.226Z,53.72
2022-08-05T22:55:57.084Z,54.01
2022-08-05T22:59:04.070Z,54.36
2022-08-05T23:02:31.236Z,54.90
2022-08-05T23:05:38.054Z,55.11
2022-08-05T23:08:43.224Z,55.46
2022-08-05T23:11:49.293Z,55.84
2022-08-05T23:14:53.208Z,56.02
2022-08-05T23:18:00.532Z,56.35
2022-08-05T23:21:05.672Z,56.17
2022-08-05T23:24:13.018Z,56.12
2022-08-05T23:27:17.008Z,56.05
2022-08-05T23:30:26.928Z,55.61
2022-08-05T23:34:03.966Z,55.11
2022-08-05T23:36:54.929Z,55.75
2022-08-05T23:39:57.981Z,55.72
2022-08-05T23:43:02.763Z,55.83
2022-08-05T23:46:25.868Z,56.10
2022-08-05T23:49:35.702Z,56.08
2022-08-05T23:52:49.687Z,55.88
2022-08-05T23:55:53.398Z,56.11
2022-08-05T23:58:58.682Z,56.23
